createdAt,value
2019-04-26T00:00:53.264Z,22.13
2019-04-26T00:03:28.086Z,21.70
2019-04-26T00:05:58.011Z,21.90
2019-04-26T00:08:27.327Z,22.53
2019-04-26T00:11:18.440Z,21.37
2019-04-26T00:14:05.557Z,22.47
2019-04-26T00:16:50.060Z,21.33
2019-04-26T00:19:19.312Z,20.73
2019-04-26T00:21:48.947Z,21.83
2019-04-26T00:24:19.351Z,21.77
2019-04-26T00:26:48.811Z,21.73
2019-04-26T00:29:18.928Z,21.87
2019-04-26T00:31:48.435Z,21.60
2019-04-26T00:34:17.801Z,22.63
2019-04-26T00:36:47.153Z,22.10
2019-04-26T00:39:16.431Z,22.57
2019-04-26T00:41:46.674Z,21.23
2019-04-26T00:44:16.593Z,22.20
2019-04-26T00:46:48.389Z,22.50
2019-04-26T00:49:19.219Z,21.10
2019-04-26T00:51:50.291Z,21.43
2019-04-26T00:54:20.759Z,22.00
2019-04-26T00:56:50.390Z,22.03
2019-04-26T00:59:20.536Z,22.53
2019-04-26T01:01:53.762Z,23.17
2019-04-26T01:04:23.107Z,23.27
2019-04-26T01:06:54.521Z,21.50
2019-04-26T01:09:23.959Z,23.10
2019-04-26T01:11:53.211Z,22.37
2019-04-26T01:14:22.455Z,22.30
2019-04-26T01:16:51.747Z,22.17
2019-04-26T01:19:24.574Z,22.37
2019-04-26T01:21:58.046Z,22.73
2019-04-26T01:24:30.244Z,23.40
2019-04-26T01:27:01.777Z,22.90
2019-04-26T01:29:32.508Z,22.97
2019-04-26T01:32:09.553Z,22.80
2019-04-26T01:34:41.541Z,22.13
2019-04-26T01:37:12.097Z,23.20
2019-04-26T01:39:46.270Z,22.90
2019-04-26T01:42:33.360Z,22.93
2019-04-26T01:45:16.300Z,22.63
2019-04-26T01:47:47.344Z,22.47
2019-04-26T01:50:17.277Z,21.83
2019-04-26T01:52:47.881Z,23.50
2019-04-26T01:55:18.042Z,22.93
2019-04-26T01:57:47.591Z,22.20
2019-04-26T02:00:39.245Z,23.13
2019-04-26T02:03:18.868Z,22.07
2019-04-26T02:05:48.779Z,21.87
2019-04-26T02:08:19.076Z,23.20
2019-04-26T02:10:48.484Z,22.90
2019-04-26T02:13:17.884Z,21.53
2019-04-26T02:15:47.130Z,22.83
2019-04-26T02:18:16.387Z,23.50
2019-04-26T02:21:10.824Z,22.03
2019-04-26T02:23:46.447Z,21.47
2019-04-26T02:26:34.911Z,22.20
2019-04-26T02:29:07.462Z,21.27
2019-04-26T02:31:38.373Z,22.50
2019-04-26T02:34:08.164Z,21.83
2019-04-26T02:36:56.178Z,21.50
2019-04-26T02:39:21.562Z,21.73
2019-04-26T02:41:54.680Z,22.40
2019-04-26T02:44:31.327Z,21.93
2019-04-26T02:47:50.605Z,21.23
2019-04-26T02:50:31.165Z,21.80
2019-04-26T02:53:08.573Z,21.67
2019-04-26T02:56:12.997Z,22.10
2019-04-26T02:59:13.070Z,21.47
2019-04-26T03:01:42.868Z,21.83
2019-04-26T03:04:12.623Z,22.60
2019-04-26T03:07:01.907Z,21.97
2019-04-26T03:09:17.003Z,21.27
2019-04-26T03:11:49.739Z,20.97
2019-04-26T03:14:38.501Z,21.60
2019-04-26T03:17:24.016Z,21.37
2019-04-26T03:19:59.503Z,22.80
2019-04-26T03:22:51.999Z,22.43
2019-04-26T03:25:59.493Z,21.83
2019-04-26T03:28:46.751Z,21.43
2019-04-26T03:31:26.508Z,20.73
2019-04-26T03:34:13.621Z,20.73
2019-04-26T03:37:28.289Z,21.43
2019-04-26T03:40:13.988Z,21.60
2019-04-26T03:43:06.495Z,22.33
2019-04-26T03:45:51.208Z,21.53
2019-04-26T03:48:35.919Z,22.27
2019-04-26T03:51:13.566Z,21.60
2019-04-26T03:53:56.214Z,22.87
2019-04-26T03:57:03.252Z,21.60
2019-04-26T03:59:53.994Z,22.73
2019-04-26T04:02:59.060Z,21.67
2019-04-26T04:05:44.172Z,22.10
2019-04-26T04:08:20.463Z,22.17
2019-04-26T04:11:01.020Z,21.37
2019-04-26T04:13:58.699Z,21.90
2019-04-26T04:17:01.174Z,20.87
2019-04-26T04:20:14.740Z,21.03
2019-04-26T04:22:49.401Z,21.23
2019-04-26T04:25:29.678Z,20.70
2019-04-26T04:28:07.131Z,21.13
2019-04-26T04:31:05.211Z,20.10
2019-04-26T04:34:07.528Z,21.73
2019-04-26T04:36:48.881Z,20.97
2019-04-26T04:39:40.873Z,21.20
2019-04-26T04:42:29.693Z,20.30
2019-04-26T04:45:26.662Z,21.00
2019-04-26T04:48:21.437Z,20.43
2019-04-26T04:51:01.722Z,21.57
2019-04-26T04:53:53.497Z,20.43
2019-04-26T04:56:41.520Z,21.17
2019-04-26T04:59:14.566Z,21.00
2019-04-26T05:02:31.777Z,20.30
2019-04-26T05:05:40.091Z,20.00
2019-04-26T05:08:23.801Z,19.60
2019-04-26T05:11:04.227Z,20.10
2019-04-26T05:13:45.238Z,19.63
2019-04-26T05:16:46.536Z,19.37
2019-04-26T05:19:48.604Z,18.80
2019-04-26T05:23:07.660Z,19.80
2019-04-26T05:26:29.077Z,19.47
2019-04-26T05:29:39.666Z,19.00
2019-04-26T05:32:28.966Z,19.07
2019-04-26T05:35:12.177Z,19.10
2019-04-26T05:38:18.554Z,18.77
2019-04-26T05:41:11.129Z,18.03
2019-04-26T05:43:58.029Z,18.60
2019-04-26T05:47:23.338Z,18.33
2019-04-26T05:50:25.589Z,18.30
2019-04-26T05:54:01.391Z,18.37
2019-04-26T05:56:52.720Z,18.70
2019-04-26T06:00:50.547Z,17.47
2019-04-26T06:04:04.225Z,18.30
2019-04-26T06:06:44.782Z,17.23
2019-04-26T06:10:05.115Z,16.83
2019-04-26T06:12:46.611Z,16.63
2019-04-26T06:15:44.451Z,17.57
2019-04-26T06:18:44.797Z,16.93
2019-04-26T06:21:44.571Z,16.27
2019-04-26T06:24:26.310Z,17.70
2019-04-26T06:27:33.401Z,16.03
2019-04-26T06:30:15.041Z,16.23
2019-04-26T06:33:00.379Z,16.07
2019-04-26T06:35:27.051Z,15.50
2019-04-26T06:38:25.477Z,15.33
2019-04-26T06:41:40.002Z,16.30
2019-04-26T06:44:14.892Z,14.50
2019-04-26T06:47:07.067Z,14.33
2019-04-26T06:50:18.075Z,14.03
2019-04-26T06:52:56.665Z,13.90
2019-04-26T06:55:39.461Z,13.87
2019-04-26T06:58:46.134Z,13.77
2019-04-26T07:01:53.106Z,13.77
2019-04-26T07:05:01.075Z,14.53
2019-04-26T07:08:06.876Z,15.67
2019-04-26T07:11:12.071Z,13.67
2019-04-26T07:14:22.250Z,14.43
2019-04-26T07:16:58.211Z,13.93
2019-04-26T07:20:30.281Z,13.37
2019-04-26T07:23:34.474Z,13.27
2019-04-26T07:26:39.539Z,13.83
2019-04-26T07:29:46.011Z,13.90
2019-04-26T07:32:33.198Z,12.90
2019-04-26T07:35:19.249Z,14.27
2019-04-26T07:38:52.477Z,13.30
2019-04-26T07:41:55.883Z,13.17
2019-04-26T07:44:46.130Z,13.87
2019-04-26T07:47:42.706Z,12.33
2019-04-26T07:50:38.228Z,12.37
2019-04-26T07:53:45.179Z,13.37
2019-04-26T07:56:58.354Z,12.93
2019-04-26T07:59:52.451Z,12.80
2019-04-26T08:02:56.497Z,12.15
2019-04-26T08:05:38.833Z,12.93
2019-04-26T08:08:10.884Z,12.23
2019-04-26T08:10:42.958Z,12.33
2019-04-26T08:13:16.369Z,12.18
2019-04-26T08:16:27.014Z,12.78
2019-04-26T08:19:01.938Z,11.28
2019-04-26T08:21:37.008Z,11.48
2019-04-26T08:24:27.884Z,11.12
2019-04-26T08:27:22.817Z,10.50
2019-04-26T08:29:49.129Z,10.70
2019-04-26T08:32:23.153Z,10.93
2019-04-26T08:35:09.999Z,10.53
2019-04-26T08:37:59.296Z,10.68
2019-04-26T08:40:31.414Z,11.12
2019-04-26T08:43:20.506Z,10.58
2019-04-26T08:46:16.331Z,10.65
2019-04-26T08:48:53.076Z,9.40
2019-04-26T08:51:24.942Z,10.40
2019-04-26T08:53:58.180Z,10.43
2019-04-26T08:56:33.350Z,9.83
2019-04-26T08:59:09.755Z,9.50
2019-04-26T09:01:50.080Z,9.88
2019-04-26T09:04:28.650Z,9.18
2019-04-26T09:07:09.154Z,9.33
2019-04-26T09:09:41.302Z,9.90
2019-04-26T09:12:22.924Z,9.33
2019-04-26T09:14:51.669Z,9.70
2019-04-26T09:17:20.975Z,9.88
2019-04-26T09:19:50.253Z,9.90
2019-04-26T09:22:27.641Z,9.95
2019-04-26T09:25:02.020Z,9.85
2019-04-26T09:28:02.970Z,10.43
2019-04-26T09:30:51.519Z,9.58
2019-04-26T09:33:26.981Z,9.05
2019-04-26T09:35:56.264Z,9.35
2019-04-26T09:38:25.379Z,8.30
2019-04-26T09:40:56.203Z,9.08
2019-04-26T09:43:31.981Z,9.35
2019-04-26T09:46:07.774Z,9.43
2019-04-26T09:48:59.051Z,8.83
2019-04-26T09:51:28.512Z,8.98
2019-04-26T09:53:57.735Z,11.57
2019-04-26T09:56:27.031Z,8.98
2019-04-26T09:58:56.383Z,9.68
2019-04-26T10:01:26.067Z,9.45
2019-04-26T10:03:55.343Z,9.30
2019-04-26T10:06:26.173Z,8.60
2019-04-26T10:08:55.676Z,8.80
2019-04-26T10:11:27.456Z,9.00
2019-04-26T10:14:06.283Z,9.15
2019-04-26T10:16:57.579Z,8.83
2019-04-26T10:19:54.578Z,9.85
2019-04-26T10:22:25.899Z,8.40
2019-04-26T10:24:55.154Z,8.43
2019-04-26T10:27:24.448Z,7.95
2019-04-26T10:29:56.561Z,7.83
2019-04-26T10:32:26.389Z,8.45
2019-04-26T10:34:56.104Z,7.97
2019-04-26T10:37:25.502Z,8.88
2019-04-26T10:39:54.735Z,9.25
2019-04-26T10:42:24.501Z,8.38
2019-04-26T10:44:53.756Z,7.08
2019-04-26T10:47:23.108Z,7.03
2019-04-26T10:49:54.429Z,7.37
2019-04-26T10:52:39.093Z,7.55
2019-04-26T10:55:26.985Z,7.72
2019-04-26T10:57:59.577Z,7.65
2019-04-26T11:00:34.749Z,7.87
2019-04-26T11:03:05.981Z,8.40
2019-04-26T11:05:35.192Z,8.68
2019-04-26T11:08:04.639Z,7.90
2019-04-26T11:10:47.668Z,7.28
2019-04-26T11:13:06.503Z,7.25
2019-04-26T11:15:35.894Z,6.85
2019-04-26T11:18:05.868Z,6.25
2019-04-26T11:20:35.122Z,7.47
2019-04-26T11:23:04.421Z,6.53
2019-04-26T11:25:33.720Z,7.15
2019-04-26T11:28:02.955Z,6.55
2019-04-26T11:30:32.254Z,6.05
2019-04-26T11:33:01.595Z,6.87
2019-04-26T11:35:33.278Z,6.70
2019-04-26T11:38:02.009Z,7.22
2019-04-26T11:40:31.271Z,7.42
2019-04-26T11:43:00.529Z,6.95
2019-04-26T11:45:29.888Z,6.90
2019-04-26T11:47:59.962Z,7.75
2019-04-26T11:50:29.212Z,14.45
2019-04-26T11:52:58.494Z,11.88
2019-04-26T11:55:29.956Z,11.85
2019-04-26T11:57:58.743Z,9.30
2019-04-26T12:00:32.933Z,8.23
2019-04-26T12:03:02.194Z,9.28
2019-04-26T12:05:58.203Z,7.53
2019-04-26T12:08:56.707Z,7.97
2019-04-26T12:11:32.522Z,69.17
2019-04-26T12:13:59.539Z,103.65
2019-04-26T12:16:27.861Z,81.12
2019-04-26T12:18:57.156Z,7.92
2019-04-26T12:21:26.405Z,7.80
2019-04-26T12:23:56.426Z,7.08
2019-04-26T12:26:27.355Z,7.72
2019-04-26T12:28:57.488Z,7.60
2019-04-26T12:31:28.968Z,8.15
2019-04-26T12:33:58.584Z,8.13
2019-04-26T12:36:28.361Z,8.23
2019-04-26T12:38:58.150Z,8.10
2019-04-26T12:41:39.782Z,9.05
2019-04-26T12:44:03.256Z,8.35
2019-04-26T12:46:41.867Z,8.50
2019-04-26T12:49:11.691Z,7.80
2019-04-26T12:51:42.908Z,8.28
2019-04-26T12:54:11.940Z,8.28
2019-04-26T12:56:41.256Z,9.93
2019-04-26T12:59:10.517Z,9.45
2019-04-26T13:01:42.700Z,9.90
2019-04-26T13:04:10.971Z,11.30
2019-04-26T13:06:48.225Z,11.45
2019-04-26T13:09:26.622Z,11.68
2019-04-26T13:12:07.868Z,11.38
2019-04-26T13:15:13.193Z,11.50
2019-04-26T13:17:45.255Z,10.30
2019-04-26T13:20:14.422Z,10.30
2019-04-26T13:22:46.163Z,10.20
2019-04-26T13:25:24.732Z,10.20
2019-04-26T13:27:46.702Z,9.68
2019-04-26T13:30:16.004Z,10.20
2019-04-26T13:32:49.316Z,10.28
2019-04-26T13:35:16.524Z,10.10
2019-04-26T13:37:45.909Z,9.80
2019-04-26T13:40:15.211Z,10.10
2019-04-26T13:42:47.500Z,9.78
2019-04-26T13:45:23.899Z,8.73
2019-04-26T13:48:14.924Z,8.93
2019-04-26T13:50:49.429Z,8.78
2019-04-26T13:53:18.674Z,8.35
2019-04-26T13:55:47.938Z,8.75
2019-04-26T13:58:20.798Z,8.95
2019-04-26T14:00:48.198Z,8.53
2019-04-26T14:03:17.471Z,8.08
2019-04-26T14:05:47.185Z,8.85
2019-04-26T14:08:17.738Z,8.38
2019-04-26T14:10:49.773Z,9.43
2019-04-26T14:13:20.714Z,8.55
2019-04-26T14:15:51.883Z,8.28
2019-04-26T14:18:20.233Z,8.48
2019-04-26T14:20:49.682Z,8.35
2019-04-26T14:23:33.756Z,9.28
2019-04-26T14:26:08.904Z,9.55
2019-04-26T14:28:38.158Z,9.08
2019-04-26T14:31:07.497Z,9.30
2019-04-26T14:33:36.921Z,9.75
2019-04-26T14:36:17.092Z,9.48
2019-04-26T14:38:40.043Z,9.40
2019-04-26T14:41:08.845Z,11.08
2019-04-26T14:43:41.000Z,10.10
2019-04-26T14:46:10.388Z,10.32
2019-04-26T14:48:44.118Z,10.35
2019-04-26T14:51:12.293Z,10.63
2019-04-26T14:53:42.879Z,11.25
2019-04-26T14:56:12.191Z,10.68
2019-04-26T14:58:42.309Z,10.58
2019-04-26T15:01:17.360Z,10.98
2019-04-26T15:04:08.679Z,10.25
2019-04-26T15:06:42.369Z,10.88
2019-04-26T15:09:19.884Z,11.20
2019-04-26T15:11:53.485Z,10.32
2019-04-26T15:14:19.423Z,10.38
2019-04-26T15:16:46.060Z,10.38
2019-04-26T15:19:15.461Z,10.35
2019-04-26T15:21:44.843Z,9.75
2019-04-26T15:24:14.288Z,10.72
2019-04-26T15:26:43.517Z,11.00
2019-04-26T15:29:12.815Z,10.25
2019-04-26T15:31:43.451Z,10.38
2019-04-26T15:34:12.728Z,10.18
2019-04-26T15:36:43.451Z,11.57
2019-04-26T15:39:23.217Z,10.35
2019-04-26T15:42:15.003Z,10.48
2019-04-26T15:44:53.419Z,10.72
2019-04-26T15:47:42.222Z,10.70
2019-04-26T15:50:33.582Z,10.80
2019-04-26T15:53:06.607Z,10.85
2019-04-26T15:55:39.674Z,10.08
2019-04-26T15:58:08.329Z,10.82
2019-04-26T16:00:36.184Z,10.72
2019-04-26T16:03:07.444Z,11.12
2019-04-26T16:05:36.855Z,10.53
2019-04-26T16:08:06.172Z,10.32
2019-04-26T16:10:38.395Z,11.33
2019-04-26T16:13:18.062Z,10.90
2019-04-26T16:15:37.450Z,11.20
2019-04-26T16:18:10.704Z,12.00
2019-04-26T16:20:42.230Z,10.53
2019-04-26T16:23:09.172Z,11.00
2019-04-26T16:25:39.284Z,10.98
2019-04-26T16:28:30.846Z,11.95
2019-04-26T16:31:24.596Z,11.65
2019-04-26T16:33:57.228Z,11.63
2019-04-26T16:36:26.465Z,10.90
2019-04-26T16:38:57.959Z,11.20
2019-04-26T16:41:27.497Z,12.18
2019-04-26T16:43:57.878Z,11.85
2019-04-26T16:46:27.135Z,12.03
2019-04-26T16:49:03.225Z,12.23
2019-04-26T16:51:27.434Z,11.78
2019-04-26T16:54:06.668Z,12.45
2019-04-26T16:56:28.351Z,12.63
2019-04-26T16:58:57.922Z,12.25
2019-04-26T17:01:27.177Z,12.63
2019-04-26T17:03:56.482Z,13.13
2019-04-26T17:06:25.734Z,13.53
2019-04-26T17:09:01.171Z,13.00
2019-04-26T17:11:25.986Z,12.93
2019-04-26T17:13:56.990Z,13.28
2019-04-26T17:16:29.643Z,13.08
2019-04-26T17:18:59.690Z,13.80
2019-04-26T17:21:30.732Z,13.20
2019-04-26T17:24:12.271Z,13.00
2019-04-26T17:26:48.600Z,12.65
2019-04-26T17:29:17.971Z,12.43
2019-04-26T17:31:47.214Z,13.20
2019-04-26T17:34:16.460Z,13.20
2019-04-26T17:36:46.508Z,12.87
2019-04-26T17:39:18.284Z,13.27
2019-04-26T17:41:50.854Z,13.03
2019-04-26T17:44:20.600Z,13.17
2019-04-26T17:46:56.373Z,13.77
2019-04-26T17:49:26.978Z,12.90
2019-04-26T17:51:57.984Z,13.67
2019-04-26T17:54:41.611Z,13.50
2019-04-26T17:56:53.843Z,13.30
2019-04-26T17:59:33.613Z,14.63
2019-04-26T18:02:00.978Z,14.00
2019-04-26T18:04:34.543Z,12.97
2019-04-26T18:07:03.794Z,14.23
2019-04-26T18:09:41.378Z,13.80
2019-04-26T18:12:00.032Z,13.83
2019-04-26T18:14:30.677Z,14.23
2019-04-26T18:17:06.623Z,14.50
2019-04-26T18:19:43.090Z,15.07
2019-04-26T18:22:36.181Z,14.83
2019-04-26T18:25:10.767Z,13.80
2019-04-26T18:27:38.620Z,14.27
2019-04-26T18:30:12.258Z,14.50
2019-04-26T18:32:45.710Z,14.13
2019-04-26T18:35:15.201Z,14.50
2019-04-26T18:37:42.734Z,13.97
2019-04-26T18:40:12.755Z,14.27
2019-04-26T18:42:43.399Z,14.23
2019-04-26T18:45:13.929Z,15.33
2019-04-26T18:47:45.331Z,13.90
2019-04-26T18:50:15.568Z,14.23
2019-04-26T18:53:03.966Z,14.30
2019-04-26T18:55:34.539Z,14.47
2019-04-26T18:58:05.859Z,13.83
2019-04-26T19:00:39.895Z,15.27
2019-04-26T19:03:09.233Z,15.30
2019-04-26T19:05:38.698Z,14.13
2019-04-26T19:08:09.853Z,14.40
2019-04-26T19:10:39.167Z,13.93
2019-04-26T19:13:32.108Z,13.90
2019-04-26T19:16:10.518Z,13.63
2019-04-26T19:18:52.708Z,13.70
2019-04-26T19:21:39.085Z,14.30
2019-04-26T19:24:11.644Z,13.80
2019-04-26T19:26:37.482Z,13.63
2019-04-26T19:29:16.316Z,14.43
2019-04-26T19:31:37.757Z,14.07
2019-04-26T19:34:07.015Z,14.50
2019-04-26T19:36:36.281Z,14.60
2019-04-26T19:39:08.051Z,13.87
2019-04-26T19:41:37.486Z,14.30
2019-04-26T19:44:06.714Z,14.67
2019-04-26T19:47:02.157Z,14.63
2019-04-26T19:49:46.832Z,14.50
2019-04-26T19:52:47.418Z,14.37
2019-04-26T19:55:51.453Z,14.70
2019-04-26T19:58:23.415Z,14.43
2019-04-26T20:00:52.876Z,15.63
2019-04-26T20:03:25.371Z,15.07
2019-04-26T20:05:54.751Z,15.10
2019-04-26T20:08:24.011Z,14.70
2019-04-26T20:10:53.250Z,14.63
2019-04-26T20:13:22.526Z,14.03
2019-04-26T20:15:57.084Z,14.83
2019-04-26T20:18:23.951Z,14.93
2019-04-26T20:20:53.244Z,14.27
2019-04-26T20:23:22.912Z,14.63
2019-04-26T20:25:53.048Z,15.17
2019-04-26T20:28:22.999Z,14.70
2019-04-26T20:31:05.942Z,14.23
2019-04-26T20:33:31.564Z,15.10
2019-04-26T20:36:04.682Z,14.90
2019-04-26T20:38:35.873Z,14.80
2019-04-26T20:41:03.728Z,15.20
2019-04-26T20:43:36.784Z,14.23
2019-04-26T20:46:14.149Z,15.07
2019-04-26T20:48:35.887Z,14.67
2019-04-26T20:51:06.589Z,14.70
2019-04-26T20:53:40.956Z,14.17
2019-04-26T20:56:09.450Z,15.50
2019-04-26T20:58:45.433Z,14.60
2019-04-26T21:01:12.479Z,14.97
2019-04-26T21:03:44.605Z,15.37
2019-04-26T21:06:12.210Z,15.70
2019-04-26T21:08:42.335Z,14.77
2019-04-26T21:11:13.732Z,14.37
2019-04-26T21:13:43.134Z,14.60
2019-04-26T21:16:15.215Z,14.77
2019-04-26T21:18:44.415Z,14.27
2019-04-26T21:21:16.002Z,15.07
2019-04-26T21:23:47.309Z,14.77
2019-04-26T21:26:27.603Z,13.87
2019-04-26T21:29:20.474Z,14.43
2019-04-26T21:32:23.717Z,14.57
2019-04-26T21:34:53.962Z,14.13
2019-04-26T21:37:32.336Z,14.23
2019-04-26T21:40:26.183Z,14.40
2019-04-26T21:42:59.299Z,14.53
2019-04-26T21:45:29.715Z,14.87
2019-04-26T21:47:56.739Z,13.77
2019-04-26T21:50:29.126Z,13.43
2019-04-26T21:52:58.563Z,14.57
2019-04-26T21:55:35.335Z,15.27
2019-04-26T21:58:02.740Z,14.37
2019-04-26T22:00:57.131Z,15.10
2019-04-26T22:03:26.479Z,14.63
2019-04-26T22:05:55.725Z,14.73
2019-04-26T22:08:28.719Z,14.67
2019-04-26T22:10:58.057Z,15.03
2019-04-26T22:13:37.218Z,13.90
2019-04-26T22:16:30.675Z,14.07
2019-04-26T22:19:03.849Z,13.23
2019-04-26T22:21:43.530Z,14.73
2019-04-26T22:24:18.268Z,14.37
2019-04-26T22:26:48.196Z,13.80
2019-04-26T22:29:17.635Z,13.50
2019-04-26T22:31:46.933Z,13.63
2019-04-26T22:34:16.171Z,13.80
2019-04-26T22:36:45.434Z,13.37
2019-04-26T22:39:19.259Z,13.97
2019-04-26T22:41:48.510Z,14.00
2019-04-26T22:44:38.303Z,14.17
2019-04-26T22:47:40.875Z,14.43
2019-04-26T22:50:06.896Z,13.77
2019-04-26T22:52:36.173Z,14.33
2019-04-26T22:55:07.963Z,14.50
2019-04-26T22:57:37.253Z,14.60
2019-04-26T23:00:07.413Z,13.13
2019-04-26T23:02:36.739Z,13.80
2019-04-26T23:05:06.698Z,14.20
2019-04-26T23:07:35.928Z,13.97
2019-04-26T23:10:08.407Z,14.67
2019-04-26T23:13:14.938Z,13.83
2019-04-26T23:16:18.487Z,13.43
2019-04-26T23:18:58.790Z,13.83
2019-04-26T23:21:30.928Z,13.00
2019-04-26T23:24:00.195Z,14.47
2019-04-26T23:26:29.458Z,13.73
2019-04-26T23:28:58.718Z,13.97
2019-04-26T23:31:27.961Z,14.27
2019-04-26T23:33:57.271Z,14.20
2019-04-26T23:36:26.509Z,14.53
2019-04-26T23:38:55.754Z,13.67
2019-04-26T23:41:25.098Z,14.17
2019-04-26T23:44:02.504Z,14.20
2019-04-26T23:46:25.895Z,13.93
2019-04-26T23:48:55.611Z,14.23
2019-04-26T23:51:26.202Z,14.73
2019-04-26T23:53:57.760Z,13.97
2019-04-26T23:56:26.817Z,14.43
2019-04-26T23:58:56.104Z,13.33
